sensor_id;sensor_type;location;lat;lon;timestamp;temperature;humidity
8824;DHT22;4448;50.904;4.694;2022-10-31T00:02:00;14.60;99.90
8824;DHT22;4448;50.904;4.694;2022-10-31T00:04:26;14.70;99.90
8824;DHT22;4448;50.904;4.694;2022-10-31T00:06:52;14.80;99.90
8824;DHT22;4448;50.904;4.694;2022-10-31T00:09:17;14.60;99.90
8824;DHT22;4448;50.904;4.694;2022-10-31T00:11:43;14.60;99.90
8824;DHT22;4448;50.904;4.694;2022-10-31T00:14:08;14.80;99.90
8824;DHT22;4448;50.904;4.694;2022-10-31T00:16:34;14.40;99.90
8824;DHT22;4448;50.904;4.694;2022-10-31T00:19:03;14.40;99.90
8824;DHT22;4448;50.904;4.694;2022-10-31T00:21:29;14.90;99.90
8824;DHT22;4448;50.904;4.694;2022-10-31T00:23:57;14.50;99.90
8824;DHT22;4448;50.904;4.694;2022-10-31T00:26:23;14.50;99.90
8824;DHT22;4448;50.904;4.694;2022-10-31T00:28:48;14.60;99.90
8824;DHT22;4448;50.904;4.694;2022-10-31T00:31:14;14.70;99.90
8824;DHT22;4448;50.904;4.694;2022-10-31T00:33:41;14.60;99.90
8824;DHT22;4448;50.904;4.694;2022-10-31T00:36:10;14.70;99.90
8824;DHT22;4448;50.904;4.694;2022-10-31T00:38:36;14.40;99.90
8824;DHT22;4448;50.904;4.694;2022-10-31T00:41:02;14.30;99.90
8824;DHT22;4448;50.904;4.694;2022-10-31T00:43:27;14.30;99.90
8824;DHT22;4448;50.904;4.694;2022-10-31T00:45:53;14.30;99.90
8824;DHT22;4448;50.904;4.694;2022-10-31T00:48:18;14.40;99.90
8824;DHT22;4448;50.904;4.694;2022-10-31T00:50:45;14.30;99.90
8824;DHT22;4448;50.904;4.694;2022-10-31T00:53:10;14.20;99.90
8824;DHT22;4448;50.904;4.694;2022-10-31T00:55:36;14.20;99.90
8824;DHT22;4448;50.904;4.694;2022-10-31T00:58:02;14.70;99.90
8824;DHT22;4448;50.904;4.694;2022-10-31T01:00:27;14.20;99.90
8824;DHT22;4448;50.904;4.694;2022-10-31T01:02:53;14.10;99.90
8824;DHT22;4448;50.904;4.694;2022-10-31T01:05:19;14.30;99.90
8824;DHT22;4448;50.904;4.694;2022-10-31T01:07:44;14.20;99.90
8824;DHT22;4448;50.904;4.694;2022-10-31T01:10:11;14.10;99.90
8824;DHT22;4448;50.904;4.694;2022-10-31T01:12:45;14.20;99.90
8824;DHT22;4448;50.904;4.694;2022-10-31T01:15:13;14.00;99.90
8824;DHT22;4448;50.904;4.694;2022-10-31T01:17:39;14.10;99.90
8824;DHT22;4448;50.904;4.694;2022-10-31T01:20:06;14.10;99.90
8824;DHT22;4448;50.904;4.694;2022-10-31T01:22:32;13.80;99.90
8824;DHT22;4448;50.904;4.694;2022-10-31T01:24:58;14.00;99.90
8824;DHT22;4448;50.904;4.694;2022-10-31T01:27:24;14.00;99.90
8824;DHT22;4448;50.904;4.694;2022-10-31T01:29:49;14.00;99.90
8824;DHT22;4448;50.904;4.694;2022-10-31T01:32:15;13.80;99.90
8824;DHT22;4448;50.904;4.694;2022-10-31T01:34:41;14.00;99.90
8824;DHT22;4448;50.904;4.694;2022-10-31T01:37:06;14.20;99.90
8824;DHT22;4448;50.904;4.694;2022-10-31T01:39:32;14.00;99.90
8824;DHT22;4448;50.904;4.694;2022-10-31T01:41:57;14.20;99.90
8824;DHT22;4448;50.904;4.694;2022-10-31T01:46:53;13.80;99.90
8824;DHT22;4448;50.904;4.694;2022-10-31T01:50:06;13.60;99.90
8824;DHT22;4448;50.904;4.694;2022-10-31T01:52:28;13.80;99.90
8824;DHT22;4448;50.904;4.694;2022-10-31T01:55:11;13.60;99.90
8824;DHT22;4448;50.904;4.694;2022-10-31T01:57:40;13.80;99.90
8824;DHT22;4448;50.904;4.694;2022-10-31T02:00:09;13.90;99.90
8824;DHT22;4448;50.904;4.694;2022-10-31T02:02:35;13.60;99.90
8824;DHT22;4448;50.904;4.694;2022-10-31T02:05:08;13.60;99.90
8824;DHT22;4448;50.904;4.694;2022-10-31T02:10:23;13.50;99.90
8824;DHT22;4448;50.904;4.694;2022-10-31T02:12:52;13.60;99.90
8824;DHT22;4448;50.904;4.694;2022-10-31T02:15:18;13.60;99.90
8824;DHT22;4448;50.904;4.694;2022-10-31T02:17:44;13.50;99.90
8824;DHT22;4448;50.904;4.694;2022-10-31T02:20:17;13.50;99.90
8824;DHT22;4448;50.904;4.694;2022-10-31T02:31:43;13.30;99.90
8824;DHT22;4448;50.904;4.694;2022-10-31T02:34:19;13.20;99.90
8824;DHT22;4448;50.904;4.694;2022-10-31T02:39:37;12.90;99.90
8824;DHT22;4448;50.904;4.694;2022-10-31T02:42:11;13.40;99.90
8824;DHT22;4448;50.904;4.694;2022-10-31T02:45:07;13.30;99.90
8824;DHT22;4448;50.904;4.694;2022-10-31T02:47:37;13.20;99.90
8824;DHT22;4448;50.904;4.694;2022-10-31T02:50:06;13.10;99.90
8824;DHT22;4448;50.904;4.694;2022-10-31T02:52:34;13.10;99.90
8824;DHT22;4448;50.904;4.694;2022-10-31T02:58:07;13.10;99.90
8824;DHT22;4448;50.904;4.694;2022-10-31T03:00:43;13.20;99.90
8824;DHT22;4448;50.904;4.694;2022-10-31T03:14:39;13.10;99.90
8824;DHT22;4448;50.904;4.694;2022-10-31T03:17:08;13.00;99.90
8824;DHT22;4448;50.904;4.694;2022-10-31T03:19:42;13.20;99.90
8824;DHT22;4448;50.904;4.694;2022-10-31T03:22:16;13.10;99.90
8824;DHT22;4448;50.904;4.694;2022-10-31T03:24:43;12.90;99.90
8824;DHT22;4448;50.904;4.694;2022-10-31T03:27:12;13.30;99.90
8824;DHT22;4448;50.904;4.694;2022-10-31T03:29:40;13.00;99.90
8824;DHT22;4448;50.904;4.694;2022-10-31T03:32:13;12.90;99.90
8824;DHT22;4448;50.904;4.694;2022-10-31T03:34:41;13.10;99.90
8824;DHT22;4448;50.904;4.694;2022-10-31T03:37:10;13.20;99.90
8824;DHT22;4448;50.904;4.694;2022-10-31T03:39:39;13.10;99.90
8824;DHT22;4448;50.904;4.694;2022-10-31T03:42:12;13.50;99.90
8824;DHT22;4448;50.904;4.694;2022-10-31T03:44:42;13.00;99.90
8824;DHT22;4448;50.904;4.694;2022-10-31T03:47:10;13.10;99.90
8824;DHT22;4448;50.904;4.694;2022-10-31T03:49:35;13.20;99.90
8824;DHT22;4448;50.904;4.694;2022-10-31T03:52:43;13.20;99.90
8824;DHT22;4448;50.904;4.694;2022-10-31T03:55:18;13.10;99.90
8824;DHT22;4448;50.904;4.694;2022-10-31T03:57:52;13.00;99.90
8824;DHT22;4448;50.904;4.694;2022-10-31T04:00:20;13.00;99.90
8824;DHT22;4448;50.904;4.694;2022-10-31T04:03:05;12.90;99.90
8824;DHT22;4448;50.904;4.694;2022-10-31T04:05:32;13.00;99.90
8824;DHT22;4448;50.904;4.694;2022-10-31T04:07:59;13.30;99.90
8824;DHT22;4448;50.904;4.694;2022-10-31T04:10:27;12.90;99.90
8824;DHT22;4448;50.904;4.694;2022-10-31T04:13:03;12.90;99.90
8824;DHT22;4448;50.904;4.694;2022-10-31T04:15:30;12.90;99.90
8824;DHT22;4448;50.904;4.694;2022-10-31T04:17:58;13.10;99.90
8824;DHT22;4448;50.904;4.694;2022-10-31T04:20:36;12.90;99.90
8824;DHT22;4448;50.904;4.694;2022-10-31T04:23:02;12.80;99.90
8824;DHT22;4448;50.904;4.694;2022-10-31T04:25:28;12.70;99.90
8824;DHT22;4448;50.904;4.694;2022-10-31T04:27:54;12.90;99.90
8824;DHT22;4448;50.904;4.694;2022-10-31T04:30:20;12.60;99.90
8824;DHT22;4448;50.904;4.694;2022-10-31T04:32:46;12.60;99.90
8824;DHT22;4448;50.904;4.694;2022-10-31T04:35:12;12.60;99.90
8824;DHT22;4448;50.904;4.694;2022-10-31T04:37:38;12.50;99.90
8824;DHT22;4448;50.904;4.694;2022-10-31T04:40:04;13.10;99.90
8824;DHT22;4448;50.904;4.694;2022-10-31T04:42:30;12.60;99.90
8824;DHT22;4448;50.904;4.694;2022-10-31T04:44:56;12.60;99.90
8824;DHT22;4448;50.904;4.694;2022-10-31T04:47:21;12.70;99.90
8824;DHT22;4448;50.904;4.694;2022-10-31T04:49:47;12.60;99.90
8824;DHT22;4448;50.904;4.694;2022-10-31T04:52:13;12.60;99.90
8824;DHT22;4448;50.904;4.694;2022-10-31T04:54:39;12.90;99.90
8824;DHT22;4448;50.904;4.694;2022-10-31T04:57:05;12.40;99.90
8824;DHT22;4448;50.904;4.694;2022-10-31T04:59:31;12.80;99.90
8824;DHT22;4448;50.904;4.694;2022-10-31T05:01:58;12.50;99.90
8824;DHT22;4448;50.904;4.694;2022-10-31T05:04:23;12.60;99.90
8824;DHT22;4448;50.904;4.694;2022-10-31T05:06:49;12.90;99.90
8824;DHT22;4448;50.904;4.694;2022-10-31T05:09:15;13.40;99.90
8824;DHT22;4448;50.904;4.694;2022-10-31T05:11:40;12.80;99.90
8824;DHT22;4448;50.904;4.694;2022-10-31T05:14:07;13.00;99.90
8824;DHT22;4448;50.904;4.694;2022-10-31T05:16:33;13.00;99.90
8824;DHT22;4448;50.904;4.694;2022-10-31T05:18:58;13.00;99.90
8824;DHT22;4448;50.904;4.694;2022-10-31T05:21:25;13.10;99.90
8824;DHT22;4448;50.904;4.694;2022-10-31T05:23:51;13.40;99.90
8824;DHT22;4448;50.904;4.694;2022-10-31T05:26:17;12.80;99.90
8824;DHT22;4448;50.904;4.694;2022-10-31T05:28:43;12.90;99.90
8824;DHT22;4448;50.904;4.694;2022-10-31T05:31:08;13.20;99.90
8824;DHT22;4448;50.904;4.694;2022-10-31T05:33:34;12.60;99.90
8824;DHT22;4448;50.904;4.694;2022-10-31T05:36:00;12.90;99.90
8824;DHT22;4448;50.904;4.694;2022-10-31T05:38:25;12.80;99.90
8824;DHT22;4448;50.904;4.694;2022-10-31T05:40:57;12.70;99.90
8824;DHT22;4448;50.904;4.694;2022-10-31T05:43:27;12.90;99.90
8824;DHT22;4448;50.904;4.694;2022-10-31T05:45:53;12.90;99.90
8824;DHT22;4448;50.904;4.694;2022-10-31T05:48:19;12.90;99.90
8824;DHT22;4448;50.904;4.694;2022-10-31T05:50:46;12.80;99.90
8824;DHT22;4448;50.904;4.694;2022-10-31T05:53:12;13.10;99.90
8824;DHT22;4448;50.904;4.694;2022-10-31T05:55:38;12.90;99.90
8824;DHT22;4448;50.904;4.694;2022-10-31T05:58:06;12.80;99.90
8824;DHT22;4448;50.904;4.694;2022-10-31T06:00:32;12.90;99.90
8824;DHT22;4448;50.904;4.694;2022-10-31T06:03:01;12.80;99.90
8824;DHT22;4448;50.904;4.694;2022-10-31T06:05:28;12.80;99.90
8824;DHT22;4448;50.904;4.694;2022-10-31T06:07:54;13.60;99.90
8824;DHT22;4448;50.904;4.694;2022-10-31T06:10:20;12.90;99.90
8824;DHT22;4448;50.904;4.694;2022-10-31T06:12:47;12.90;99.90
8824;DHT22;4448;50.904;4.694;2022-10-31T06:15:13;13.10;99.90
8824;DHT22;4448;50.904;4.694;2022-10-31T06:17:38;12.80;99.90
8824;DHT22;4448;50.904;4.694;2022-10-31T06:20:05;13.20;99.90
8824;DHT22;4448;50.904;4.694;2022-10-31T06:22:31;12.80;99.90
8824;DHT22;4448;50.904;4.694;2022-10-31T06:24:57;12.90;99.90
8824;DHT22;4448;50.904;4.694;2022-10-31T06:27:23;12.90;99.90
8824;DHT22;4448;50.904;4.694;2022-10-31T06:29:49;12.70;99.90
8824;DHT22;4448;50.904;4.694;2022-10-31T06:32:15;12.80;99.90
8824;DHT22;4448;50.904;4.694;2022-10-31T06:34:41;12.90;99.90
8824;DHT22;4448;50.904;4.694;2022-10-31T06:37:08;12.80;99.90
8824;DHT22;4448;50.904;4.694;2022-10-31T06:39:35;12.80;99.90
8824;DHT22;4448;50.904;4.694;2022-10-31T06:42:01;12.80;99.90
8824;DHT22;4448;50.904;4.694;2022-10-31T06:44:27;12.90;99.90
8824;DHT22;4448;50.904;4.694;2022-10-31T06:46:52;13.00;99.90
8824;DHT22;4448;50.904;4.694;2022-10-31T06:49:18;12.80;99.90
8824;DHT22;4448;50.904;4.694;2022-10-31T06:51:47;13.00;99.90
8824;DHT22;4448;50.904;4.694;2022-10-31T06:54:13;13.20;99.90
8824;DHT22;4448;50.904;4.694;2022-10-31T06:56:39;12.90;99.90
8824;DHT22;4448;50.904;4.694;2022-10-31T06:59:04;12.90;99.90
8824;DHT22;4448;50.904;4.694;2022-10-31T07:01:30;13.10;99.90
8824;DHT22;4448;50.904;4.694;2022-10-31T07:03:55;13.20;99.90
8824;DHT22;4448;50.904;4.694;2022-10-31T07:06:21;13.00;99.90
8824;DHT22;4448;50.904;4.694;2022-10-31T07:08:47;13.00;99.90
8824;DHT22;4448;50.904;4.694;2022-10-31T07:11:12;13.00;99.90
8824;DHT22;4448;50.904;4.694;2022-10-31T07:13:38;13.20;99.90
8824;DHT22;4448;50.904;4.694;2022-10-31T07:16:05;13.10;99.90
8824;DHT22;4448;50.904;4.694;2022-10-31T07:18:33;13.00;99.90
8824;DHT22;4448;50.904;4.694;2022-10-31T07:20:58;13.20;99.90
8824;DHT22;4448;50.904;4.694;2022-10-31T07:23:24;13.10;99.90
8824;DHT22;4448;50.904;4.694;2022-10-31T07:25:58;13.30;99.90
8824;DHT22;4448;50.904;4.694;2022-10-31T07:28:24;13.20;99.90
8824;DHT22;4448;50.904;4.694;2022-10-31T07:30:55;13.20;99.90
8824;DHT22;4448;50.904;4.694;2022-10-31T07:33:21;13.60;99.90
8824;DHT22;4448;50.904;4.694;2022-10-31T07:35:47;13.20;99.90
8824;DHT22;4448;50.904;4.694;2022-10-31T07:38:14;13.20;99.90
8824;DHT22;4448;50.904;4.694;2022-10-31T07:40:41;13.40;99.90
8824;DHT22;4448;50.904;4.694;2022-10-31T07:43:07;13.20;99.90
8824;DHT22;4448;50.904;4.694;2022-10-31T07:45:33;13.40;99.90
8824;DHT22;4448;50.904;4.694;2022-10-31T07:47:59;13.70;99.90
8824;DHT22;4448;50.904;4.694;2022-10-31T07:50:26;13.50;99.90
8824;DHT22;4448;50.904;4.694;2022-10-31T07:55:31;13.30;99.90
8824;DHT22;4448;50.904;4.694;2022-10-31T07:58:08;13.50;99.90
8824;DHT22;4448;50.904;4.694;2022-10-31T08:00:35;13.30;99.90
8824;DHT22;4448;50.904;4.694;2022-10-31T08:03:07;13.50;99.90
8824;DHT22;4448;50.904;4.694;2022-10-31T08:05:33;13.90;99.90
8824;DHT22;4448;50.904;4.694;2022-10-31T08:07:59;13.50;99.90
8824;DHT22;4448;50.904;4.694;2022-10-31T08:10:26;13.70;99.90
8824;DHT22;4448;50.904;4.694;2022-10-31T08:13:02;13.80;99.90
8824;DHT22;4448;50.904;4.694;2022-10-31T08:15:28;13.90;99.90
8824;DHT22;4448;50.904;4.694;2022-10-31T08:17:54;14.30;99.90
8824;DHT22;4448;50.904;4.694;2022-10-31T08:20:20;13.90;99.90
8824;DHT22;4448;50.904;4.694;2022-10-31T08:23:15;14.10;99.90
8824;DHT22;4448;50.904;4.694;2022-10-31T08:25:41;14.20;99.90
8824;DHT22;4448;50.904;4.694;2022-10-31T08:28:09;14.20;99.90
8824;DHT22;4448;50.904;4.694;2022-10-31T08:30:37;14.20;99.90
8824;DHT22;4448;50.904;4.694;2022-10-31T08:33:12;14.20;99.90
8824;DHT22;4448;50.904;4.694;2022-10-31T08:35:37;14.40;99.90
8824;DHT22;4448;50.904;4.694;2022-10-31T08:38:03;14.10;99.90
8824;DHT22;4448;50.904;4.694;2022-10-31T08:40:32;14.50;99.90
8824;DHT22;4448;50.904;4.694;2022-10-31T08:42:59;14.50;99.90
8824;DHT22;4448;50.904;4.694;2022-10-31T08:45:25;14.30;99.90
8824;DHT22;4448;50.904;4.694;2022-10-31T08:47:51;14.30;99.90
8824;DHT22;4448;50.904;4.694;2022-10-31T08:50:17;14.50;99.90
8824;DHT22;4448;50.904;4.694;2022-10-31T08:52:43;14.50;99.90
8824;DHT22;4448;50.904;4.694;2022-10-31T08:55:09;14.60;99.90
8824;DHT22;4448;50.904;4.694;2022-10-31T08:57:34;14.70;99.90
8824;DHT22;4448;50.904;4.694;2022-10-31T09:00:00;14.60;99.90
8824;DHT22;4448;50.904;4.694;2022-10-31T09:02:27;14.70;99.90
8824;DHT22;4448;50.904;4.694;2022-10-31T09:04:54;14.70;99.90
8824;DHT22;4448;50.904;4.694;2022-10-31T09:07:20;14.90;99.90
8824;DHT22;4448;50.904;4.694;2022-10-31T09:09:45;14.90;99.90
8824;DHT22;4448;50.904;4.694;2022-10-31T09:12:11;15.00;99.90
8824;DHT22;4448;50.904;4.694;2022-10-31T09:14:37;14.90;99.90
8824;DHT22;4448;50.904;4.694;2022-10-31T09:17:02;15.00;99.90
8824;DHT22;4448;50.904;4.694;2022-10-31T09:19:28;15.10;99.90
8824;DHT22;4448;50.904;4.694;2022-10-31T09:21:54;15.20;99.90
8824;DHT22;4448;50.904;4.694;2022-10-31T09:24:20;15.40;99.90
8824;DHT22;4448;50.904;4.694;2022-10-31T09:26:46;15.20;99.90
8824;DHT22;4448;50.904;4.694;2022-10-31T09:29:11;15.40;99.90
8824;DHT22;4448;50.904;4.694;2022-10-31T09:31:37;15.30;99.90
8824;DHT22;4448;50.904;4.694;2022-10-31T09:34:03;15.50;99.90
8824;DHT22;4448;50.904;4.694;2022-10-31T09:36:29;15.60;99.90
8824;DHT22;4448;50.904;4.694;2022-10-31T09:38:55;16.10;99.90
8824;DHT22;4448;50.904;4.694;2022-10-31T09:46:34;15.90;99.90
8824;DHT22;4448;50.904;4.694;2022-10-31T09:54:49;15.90;99.90
8824;DHT22;4448;50.904;4.694;2022-10-31T09:57:25;15.90;99.90
8824;DHT22;4448;50.904;4.694;2022-10-31T09:59:51;16.20;99.90
8824;DHT22;4448;50.904;4.694;2022-10-31T10:10:00;16.20;99.90
8824;DHT22;4448;50.904;4.694;2022-10-31T10:19:02;16.50;99.90
8824;DHT22;4448;50.904;4.694;2022-10-31T10:24:03;16.30;99.90
8824;DHT22;4448;50.904;4.694;2022-10-31T10:26:37;16.40;99.90
8824;DHT22;4448;50.904;4.694;2022-10-31T10:29:31;16.40;99.90
8824;DHT22;4448;50.904;4.694;2022-10-31T10:32:01;16.30;99.90
8824;DHT22;4448;50.904;4.694;2022-10-31T10:34:36;16.30;99.90
8824;DHT22;4448;50.904;4.694;2022-10-31T10:37:23;16.40;99.90
8824;DHT22;4448;50.904;4.694;2022-10-31T10:39:54;16.50;99.90
8824;DHT22;4448;50.904;4.694;2022-10-31T10:42:23;16.50;99.90
8824;DHT22;4448;50.904;4.694;2022-10-31T10:45:19;16.60;99.90
8824;DHT22;4448;50.904;4.694;2022-10-31T10:48:34;16.70;99.90
8824;DHT22;4448;50.904;4.694;2022-10-31T10:51:05;16.80;99.90
8824;DHT22;4448;50.904;4.694;2022-10-31T10:53:39;16.90;99.90
8824;DHT22;4448;50.904;4.694;2022-10-31T10:59:25;17.30;99.90
8824;DHT22;4448;50.904;4.694;2022-10-31T11:01:51;17.30;99.90
8824;DHT22;4448;50.904;4.694;2022-10-31T11:04:33;17.40;99.90
8824;DHT22;4448;50.904;4.694;2022-10-31T11:07:07;18.00;99.90
8824;DHT22;4448;50.904;4.694;2022-10-31T11:09:34;17.80;99.90
8824;DHT22;4448;50.904;4.694;2022-10-31T11:12:10;18.10;99.90
8824;DHT22;4448;50.904;4.694;2022-10-31T11:15:00;18.20;99.90
8824;DHT22;4448;50.904;4.694;2022-10-31T11:17:31;18.20;99.90
8824;DHT22;4448;50.904;4.694;2022-10-31T11:22:39;18.30;99.90
8824;DHT22;4448;50.904;4.694;2022-10-31T11:25:24;18.30;99.90
8824;DHT22;4448;50.904;4.694;2022-10-31T11:28:05;18.40;99.90
8824;DHT22;4448;50.904;4.694;2022-10-31T11:30:46;18.50;99.90
8824;DHT22;4448;50.904;4.694;2022-10-31T11:33:32;18.30;99.90
8824;DHT22;4448;50.904;4.694;2022-10-31T11:36:00;18.40;99.90
8824;DHT22;4448;50.904;4.694;2022-10-31T11:38:42;18.50;99.90
8824;DHT22;4448;50.904;4.694;2022-10-31T11:41:15;18.70;99.90
8824;DHT22;4448;50.904;4.694;2022-10-31T11:44:01;18.90;99.90
8824;DHT22;4448;50.904;4.694;2022-10-31T11:46:45;18.90;99.90
8824;DHT22;4448;50.904;4.694;2022-10-31T11:49:41;18.80;99.90
8824;DHT22;4448;50.904;4.694;2022-10-31T11:52:17;18.90;99.90
8824;DHT22;4448;50.904;4.694;2022-10-31T11:54:54;18.90;99.90
8824;DHT22;4448;50.904;4.694;2022-10-31T11:57:32;18.90;99.90
8824;DHT22;4448;50.904;4.694;2022-10-31T12:00:03;19.10;99.90
8824;DHT22;4448;50.904;4.694;2022-10-31T12:02:29;19.10;99.90
8824;DHT22;4448;50.904;4.694;2022-10-31T12:05:18;18.90;99.90
8824;DHT22;4448;50.904;4.694;2022-10-31T12:07:46;19.10;99.90
8824;DHT22;4448;50.904;4.694;2022-10-31T12:10:13;19.00;99.90
8824;DHT22;4448;50.904;4.694;2022-10-31T12:15:29;18.80;99.90
8824;DHT22;4448;50.904;4.694;2022-10-31T12:21:40;18.70;99.90
8824;DHT22;4448;50.904;4.694;2022-10-31T12:27:09;18.80;99.90
8824;DHT22;4448;50.904;4.694;2022-10-31T12:29:59;19.10;99.90
8824;DHT22;4448;50.904;4.694;2022-10-31T12:32:54;19.00;99.90
8824;DHT22;4448;50.904;4.694;2022-10-31T12:58:09;19.30;99.90
8824;DHT22;4448;50.904;4.694;2022-10-31T13:00:38;19.60;99.90
8824;DHT22;4448;50.904;4.694;2022-10-31T13:05:48;19.70;99.90
8824;DHT22;4448;50.904;4.694;2022-10-31T13:08:41;19.60;99.90
8824;DHT22;4448;50.904;4.694;2022-10-31T13:11:24;19.70;99.90
8824;DHT22;4448;50.904;4.694;2022-10-31T13:16:46;19.90;99.90
8824;DHT22;4448;50.904;4.694;2022-10-31T13:19:28;19.80;99.90
8824;DHT22;4448;50.904;4.694;2022-10-31T13:25:17;19.90;99.90
8824;DHT22;4448;50.904;4.694;2022-10-31T13:30:24;21.20;99.90
8824;DHT22;4448;50.904;4.694;2022-10-31T13:38:22;23.30;99.90
8824;DHT22;4448;50.904;4.694;2022-10-31T13:40:55;23.00;99.90
8824;DHT22;4448;50.904;4.694;2022-10-31T13:46:23;23.00;99.90
8824;DHT22;4448;50.904;4.694;2022-10-31T13:48:50;23.00;99.90
8824;DHT22;4448;50.904;4.694;2022-10-31T13:51:28;23.10;99.90
8824;DHT22;4448;50.904;4.694;2022-10-31T13:56:22;22.50;99.90
8824;DHT22;4448;50.904;4.694;2022-10-31T13:59:16;22.60;99.90
8824;DHT22;4448;50.904;4.694;2022-10-31T14:02:15;22.10;99.90
8824;DHT22;4448;50.904;4.694;2022-10-31T14:05:18;21.90;99.90
8824;DHT22;4448;50.904;4.694;2022-10-31T14:07:42;22.10;99.90
8824;DHT22;4448;50.904;4.694;2022-10-31T14:10:28;22.40;99.90
8824;DHT22;4448;50.904;4.694;2022-10-31T14:13:14;22.50;99.90
8824;DHT22;4448;50.904;4.694;2022-10-31T14:15:51;22.20;99.90
8824;DHT22;4448;50.904;4.694;2022-10-31T14:18:29;22.20;99.90
8824;DHT22;4448;50.904;4.694;2022-10-31T14:20:55;22.10;99.90
8824;DHT22;4448;50.904;4.694;2022-10-31T14:28:50;22.10;99.90
8824;DHT22;4448;50.904;4.694;2022-10-31T14:31:36;21.60;99.90
8824;DHT22;4448;50.904;4.694;2022-10-31T14:34:28;21.00;99.90
8824;DHT22;4448;50.904;4.694;2022-10-31T14:50:50;20.10;99.90
8824;DHT22;4448;50.904;4.694;2022-10-31T14:53:26;20.10;99.90
8824;DHT22;4448;50.904;4.694;2022-10-31T14:55:55;20.10;99.90
8824;DHT22;4448;50.904;4.694;2022-10-31T14:58:42;20.00;99.90
8824;DHT22;4448;50.904;4.694;2022-10-31T15:01:27;20.00;99.90
8824;DHT22;4448;50.904;4.694;2022-10-31T15:03:57;20.10;99.90
8824;DHT22;4448;50.904;4.694;2022-10-31T15:06:24;19.90;99.90
8824;DHT22;4448;50.904;4.694;2022-10-31T15:08:52;19.80;99.90
8824;DHT22;4448;50.904;4.694;2022-10-31T15:11:24;19.60;99.90
8824;DHT22;4448;50.904;4.694;2022-10-31T15:13:57;19.30;99.90
8824;DHT22;4448;50.904;4.694;2022-10-31T15:16:31;19.20;99.90
8824;DHT22;4448;50.904;4.694;2022-10-31T15:19:04;19.20;99.90
8824;DHT22;4448;50.904;4.694;2022-10-31T15:21:31;19.10;99.90
8824;DHT22;4448;50.904;4.694;2022-10-31T15:23:59;18.90;99.90
8824;DHT22;4448;50.904;4.694;2022-10-31T15:26:37;18.90;99.90
8824;DHT22;4448;50.904;4.694;2022-10-31T15:29:11;18.80;99.90
8824;DHT22;4448;50.904;4.694;2022-10-31T15:31:37;18.70;99.90
8824;DHT22;4448;50.904;4.694;2022-10-31T15:34:11;18.70;99.90
8824;DHT22;4448;50.904;4.694;2022-10-31T15:36:39;18.60;99.90
8824;DHT22;4448;50.904;4.694;2022-10-31T15:39:08;18.50;99.90
8824;DHT22;4448;50.904;4.694;2022-10-31T15:41:40;18.40;99.90
8824;DHT22;4448;50.904;4.694;2022-10-31T15:44:16;18.40;99.90
8824;DHT22;4448;50.904;4.694;2022-10-31T15:46:58;18.30;99.90
8824;DHT22;4448;50.904;4.694;2022-10-31T15:49:46;18.30;99.90
8824;DHT22;4448;50.904;4.694;2022-10-31T15:52:35;18.30;99.90
8824;DHT22;4448;50.904;4.694;2022-10-31T15:55:25;18.00;99.90
8824;DHT22;4448;50.904;4.694;2022-10-31T15:57:52;17.90;99.90
8824;DHT22;4448;50.904;4.694;2022-10-31T16:00:29;17.90;99.90
8824;DHT22;4448;50.904;4.694;2022-10-31T16:03:05;17.70;99.90
8824;DHT22;4448;50.904;4.694;2022-10-31T16:05:37;17.90;99.90
8824;DHT22;4448;50.904;4.694;2022-10-31T16:08:03;17.70;99.90
8824;DHT22;4448;50.904;4.694;2022-10-31T16:10:33;17.50;99.90
8824;DHT22;4448;50.904;4.694;2022-10-31T16:13:00;17.50;99.90
8824;DHT22;4448;50.904;4.694;2022-10-31T16:15:27;17.40;99.90
8824;DHT22;4448;50.904;4.694;2022-10-31T16:17:53;17.30;99.90
8824;DHT22;4448;50.904;4.694;2022-10-31T16:20:21;17.30;99.90
8824;DHT22;4448;50.904;4.694;2022-10-31T16:22:49;17.30;99.90
8824;DHT22;4448;50.904;4.694;2022-10-31T16:25:36;17.30;99.90
8824;DHT22;4448;50.904;4.694;2022-10-31T16:28:13;17.20;99.90
8824;DHT22;4448;50.904;4.694;2022-10-31T16:30:45;17.20;99.90
8824;DHT22;4448;50.904;4.694;2022-10-31T16:35:49;17.00;99.90
8824;DHT22;4448;50.904;4.694;2022-10-31T16:38:15;17.30;99.90
8824;DHT22;4448;50.904;4.694;2022-10-31T16:40:41;16.90;99.90
8824;DHT22;4448;50.904;4.694;2022-10-31T16:43:12;17.10;99.90
8824;DHT22;4448;50.904;4.694;2022-10-31T16:45:50;17.00;99.90
8824;DHT22;4448;50.904;4.694;2022-10-31T16:48:18;17.10;99.90
8824;DHT22;4448;50.904;4.694;2022-10-31T16:50:46;17.10;99.90
8824;DHT22;4448;50.904;4.694;2022-10-31T16:53:13;17.10;99.90
8824;DHT22;4448;50.904;4.694;2022-10-31T16:55:59;17.00;99.90
8824;DHT22;4448;50.904;4.694;2022-10-31T16:58:34;17.00;99.90
8824;DHT22;4448;50.904;4.694;2022-10-31T17:01:02;17.20;99.90
8824;DHT22;4448;50.904;4.694;2022-10-31T17:03:29;17.10;99.90
8824;DHT22;4448;50.904;4.694;2022-10-31T17:05:56;17.10;99.90
8824;DHT22;4448;50.904;4.694;2022-10-31T17:08:22;17.20;99.90
8824;DHT22;4448;50.904;4.694;2022-10-31T17:10:52;17.00;99.90
8824;DHT22;4448;50.904;4.694;2022-10-31T17:13:23;17.10;99.90
8824;DHT22;4448;50.904;4.694;2022-10-31T17:15:53;17.00;99.90
8824;DHT22;4448;50.904;4.694;2022-10-31T17:18:20;17.00;99.90
8824;DHT22;4448;50.904;4.694;2022-10-31T17:20:46;16.80;99.90
8824;DHT22;4448;50.904;4.694;2022-10-31T17:23:13;16.90;99.90
8824;DHT22;4448;50.904;4.694;2022-10-31T17:25:39;16.90;99.90
8824;DHT22;4448;50.904;4.694;2022-10-31T17:28:05;17.10;99.90
8824;DHT22;4448;50.904;4.694;2022-10-31T17:30:32;16.80;99.90
8824;DHT22;4448;50.904;4.694;2022-10-31T17:32:58;16.70;99.90
8824;DHT22;4448;50.904;4.694;2022-10-31T17:35:23;16.90;99.90
8824;DHT22;4448;50.904;4.694;2022-10-31T17:37:49;16.80;99.90
8824;DHT22;4448;50.904;4.694;2022-10-31T17:40:18;16.80;99.90
8824;DHT22;4448;50.904;4.694;2022-10-31T17:42:52;16.80;99.90
8824;DHT22;4448;50.904;4.694;2022-10-31T17:45:18;16.90;99.90
8824;DHT22;4448;50.904;4.694;2022-10-31T17:47:49;16.70;99.90
8824;DHT22;4448;50.904;4.694;2022-10-31T17:50:20;16.80;99.90
8824;DHT22;4448;50.904;4.694;2022-10-31T17:52:47;16.80;99.90
8824;DHT22;4448;50.904;4.694;2022-10-31T17:55:14;16.70;99.90
8824;DHT22;4448;50.904;4.694;2022-10-31T17:57:40;16.50;99.90
8824;DHT22;4448;50.904;4.694;2022-10-31T18:00:08;16.70;99.90
8824;DHT22;4448;50.904;4.694;2022-10-31T18:02:35;16.50;99.90
8824;DHT22;4448;50.904;4.694;2022-10-31T18:05:02;16.40;99.90
8824;DHT22;4448;50.904;4.694;2022-10-31T18:07:28;16.40;99.90
8824;DHT22;4448;50.904;4.694;2022-10-31T18:09:54;16.30;99.90
8824;DHT22;4448;50.904;4.694;2022-10-31T18:12:20;16.20;99.90
8824;DHT22;4448;50.904;4.694;2022-10-31T18:14:46;16.40;99.90
8824;DHT22;4448;50.904;4.694;2022-10-31T18:17:11;16.20;99.90
8824;DHT22;4448;50.904;4.694;2022-10-31T18:19:37;16.10;99.90
8824;DHT22;4448;50.904;4.694;2022-10-31T18:22:03;16.00;99.90
8824;DHT22;4448;50.904;4.694;2022-10-31T18:24:29;16.20;99.90
8824;DHT22;4448;50.904;4.694;2022-10-31T18:26:54;16.10;99.90
8824;DHT22;4448;50.904;4.694;2022-10-31T18:29:20;16.10;99.90
8824;DHT22;4448;50.904;4.694;2022-10-31T18:31:46;16.20;99.90
8824;DHT22;4448;50.904;4.694;2022-10-31T18:34:17;16.10;99.90
8824;DHT22;4448;50.904;4.694;2022-10-31T18:36:43;16.20;99.90
8824;DHT22;4448;50.904;4.694;2022-10-31T18:39:09;16.20;99.90
8824;DHT22;4448;50.904;4.694;2022-10-31T18:41:36;16.10;99.90
8824;DHT22;4448;50.904;4.694;2022-10-31T18:44:06;16.10;99.90
8824;DHT22;4448;50.904;4.694;2022-10-31T18:46:32;16.10;99.90